This is the latest recevied weather packets stored in our database for station/object EFTP. If no packets are shown the sender has not sent any weather packets the latest 10 day(s).
| Time | Temp. | Humidity | Pressure | Rain* | Wind** | Luminosity | Snow |
|---|---|---|---|---|---|---|---|
| 1777703223 | 13.33° C | 51% | 1009.2 hPa | - | - | - | - |
| 1777702023 | 12.22° C | 56% | 1009.4 hPa | - | - | - | - |
| 1777700823 | 11.11° C | 61% | 1009.5 hPa | - | - | - | - |
| 1777699623 | 10° C | 66% | 1009.7 hPa | - | - | - | - |
| 1777698422 | 8.89° C | 68% | 1009.8 hPa | - | - | - | - |
| 1777697222 | 8.33° C | 73% | 1010.1 hPa | - | - | - | - |
| 1777696023 | 7.22° C | 76% | 1010.3 hPa | - | - | - | - |
| 1777694822 | 6.67° C | 78% | 1010.4 hPa | - | - | - | - |
| 1777693623 | 6.67° C | 78% | 1010.6 hPa | - | - | - | - |
| 1777692422 | 6.11° C | 79% | 1010.9 hPa | - | - | - | - |
| 1777691222 | 5° C | 80% | 1011 hPa | - | - | - | - |
| 1777690022 | 2.78° C | 90% | 1011.1 hPa | - | - | - | - |
| 1777688822 | 2.78° C | 84% | 1011.5 hPa | - | - | - | - |
| 1777673222 | 4.44° C | 84% | 1013.8 hPa | - | - | - | - |
| 1777672022 | 5.56° C | 76% | 1014.1 hPa | - | - | - | - |
| 1777670821 | 6.11° C | 78% | 1014.4 hPa | - | - | - | - |
| 1777669621 | 6.67° C | 78% | 1014.5 hPa | - | - | - | - |
| 1777667221 | 7.78° C | 65% | 1014.5 hPa | - | - | - | - |
| 1777666021 | 7.78° C | 67% | 1014.6 hPa | - | - | - | - |
| 1777663621 | 11.11° C | 55% | 1014.8 hPa | - | - | - | - |
| 1777662421 | 12.22° C | 51% | 1014.9 hPa | - | - | - | - |
| 1777661221 | 14.44° C | 45% | 1014.7 hPa | - | - | - | - |
| 1777660021 | 15° C | 43% | 1014.7 hPa | - | - | - | - |
| 1777658821 | 15.56° C | 41% | 1014.7 hPa | - | - | - | - |
| 1777655221 | 18.33° C | 29% | 1014.7 hPa | - | - | - | - |
* Rain since midnight (hover to see other rain measurements)
** Current wind speed in m/s (hover to see current wind gust speed)